Time;durP1;ratioP1;P1;durP2;ratioP2;P2;SDS_P1;SDS_P2;PMS_P1;PMS_P2;Temp;Humidity;BMP_temperature;BMP_pressure;BME280_temperature;BME280_humidity;BME280_pressure;Samples;Min_cycle;Max_cycle;Signal;HPM_P1;HPM_P2
2021/01/01 00:01:46;;;;;;;218.20;96.87;;;0.60;99.90;;;;;;5069572;28;20528;-54
2021/01/01 00:04:13;;;;;;;197.93;88.80;;;0.60;99.90;;;;;;5066663;28;20482;-53
2021/01/01 00:06:45;;;;;;;178.10;79.83;;;0.60;99.90;;;;;;5061497;28;20951;-54
2021/01/01 00:09:11;;;;;;;169.87;74.00;;;0.60;99.90;;;;;;5069064;28;20798;-53
2021/01/01 00:11:38;;;;;;;200.47;88.50;;;0.40;99.90;;;;;;5060969;28;20543;-53
2021/01/01 00:14:05;;;;;;;174.27;76.27;;;0.50;99.90;;;;;;5065128;28;20552;-53
2021/01/01 00:16:31;;;;;;;145.10;68.87;;;0.50;99.90;;;;;;5069297;28;20497;-54
2021/01/01 00:18:58;;;;;;;152.97;68.90;;;0.60;99.90;;;;;;5072988;28;20462;-54
2021/01/01 00:21:29;;;;;;;220.73;102.17;;;0.50;99.90;;;;;;5064748;28;20952;-54
2021/01/01 00:23:56;;;;;;;202.47;87.33;;;0.50;99.90;;;;;;5071680;28;20493;-54
2021/01/01 00:26:22;;;;;;;161.03;73.27;;;0.60;99.90;;;;;;5074033;28;20462;-53
2021/01/01 00:28:50;;;;;;;226.17;97.17;;;0.60;99.90;;;;;;5053341;28;20868;-54
2021/01/01 00:31:18;;;;;;;157.93;71.47;;;0.60;99.90;;;;;;5061315;28;20500;-54
2021/01/01 00:33:44;;;;;;;170.23;75.57;;;0.50;99.90;;;;;;5063720;28;20518;-54
2021/01/01 00:36:12;;;;;;;144.17;65.03;;;0.50;99.90;;;;;;5065763;28;20500;-54
2021/01/01 00:38:39;;;;;;;134.77;60.67;;;0.40;99.90;;;;;;5071761;28;21020;-54
2021/01/01 00:41:05;;;;;;;140.80;62.33;;;0.50;99.90;;;;;;5070196;28;20959;-53
2021/01/01 00:43:33;;;;;;;129.47;54.80;;;0.60;99.90;;;;;;5067350;28;20987;-53
2021/01/01 00:46:00;;;;;;;123.97;54.37;;;0.50;99.90;;;;;;5073185;28;20875;-53
2021/01/01 00:48:27;;;;;;;120.07;51.70;;;0.70;99.90;;;;;;5072481;28;20465;-53
2021/01/01 00:50:54;;;;;;;107.93;49.13;;;0.80;99.90;;;;;;5072315;28;20449;-53
2021/01/01 00:53:20;;;;;;;119.03;53.07;;;0.80;99.90;;;;;;5061449;28;20489;-53
2021/01/01 00:55:47;;;;;;;124.27;54.97;;;0.80;99.90;;;;;;5070745;28;20519;-53
2021/01/01 00:58:13;;;;;;;102.67;51.00;;;0.80;99.90;;;;;;5073069;28;20457;-54
2021/01/01 01:00:40;;;;;;;123.43;54.40;;;0.80;99.90;;;;;;5066444;28;20467;-54
2021/01/01 01:03:07;;;;;;;113.33;51.43;;;0.90;99.90;;;;;;5070532;28;20475;-53
2021/01/01 01:05:34;;;;;;;125.30;56.40;;;0.90;99.90;;;;;;5074611;28;20830;-53
2021/01/01 01:08:00;;;;;;;116.47;52.17;;;0.80;99.90;;;;;;5072545;28;20449;-54
2021/01/01 01:10:27;;;;;;;121.60;55.17;;;0.90;99.90;;;;;;5070114;28;20450;-54
2021/01/01 01:12:53;;;;;;;116.13;54.93;;;1.00;99.90;;;;;;5070534;28;20490;-54
2021/01/01 01:15:20;;;;;;;120.20;53.60;;;0.90;99.90;;;;;;5073190;28;20469;-54
2021/01/01 01:17:46;;;;;;;128.90;59.83;;;0.90;99.90;;;;;;5072736;28;21015;-54
2021/01/01 01:20:15;;;;;;;120.47;53.97;;;0.90;99.90;;;;;;5064558;28;20462;-54
2021/01/01 01:22:41;;;;;;;113.90;52.50;;;0.70;99.90;;;;;;5072849;28;20443;-54
2021/01/01 01:25:09;;;;;;;111.83;54.10;;;0.90;99.90;;;;;;5067981;28;20501;-54
2021/01/01 01:27:35;;;;;;;121.97;52.17;;;1.00;99.90;;;;;;5071229;28;20461;-54
2021/01/01 01:30:04;;;;;;;108.83;51.57;;;1.10;99.90;;;;;;5066960;28;20470;-54
2021/01/01 01:32:30;;;;;;;107.87;47.47;;;1.10;99.90;;;;;;5072503;28;20478;-54
2021/01/01 01:34:56;;;;;;;96.87;46.80;;;1.10;99.90;;;;;;5063930;28;20494;-54
2021/01/01 01:37:24;;;;;;;96.83;44.63;;;1.10;99.90;;;;;;5071829;28;20512;-54
2021/01/01 01:39:50;;;;;;;84.90;40.10;;;1.20;99.90;;;;;;5058430;28;20474;-53
2021/01/01 01:42:17;;;;;;;73.83;37.07;;;1.30;99.90;;;;;;5066615;28;20523;-54
2021/01/01 01:44:43;;;;;;;78.23;38.00;;;1.30;99.90;;;;;;5071490;28;20496;-54
2021/01/01 01:47:17;;;;;;;83.20;38.10;;;1.30;99.90;;;;;;5063592;28;20886;-54
2021/01/01 01:49:44;;;;;;;96.00;38.13;;;1.30;99.90;;;;;;5068082;28;21051;-54
2021/01/01 01:52:11;;;;;;;78.97;39.10;;;1.10;99.90;;;;;;5064220;28;20859;-54
2021/01/01 01:54:41;;;;;;;79.40;38.80;;;1.10;99.90;;;;;;5071356;28;20482;-54
2021/01/01 01:57:09;;;;;;;79.33;38.03;;;1.40;99.90;;;;;;5070672;28;20874;-53
2021/01/01 01:59:36;;;;;;;75.87;36.57;;;1.50;99.90;;;;;;5062845;28;21016;-54
2021/01/01 02:02:03;;;;;;;73.57;32.40;;;1.60;99.90;;;;;;5071930;28;20458;-54
2021/01/01 02:04:30;;;;;;;64.40;31.27;;;1.50;99.90;;;;;;5068498;28;20482;-54
2021/01/01 02:06:57;;;;;;;57.80;29.13;;;1.40;99.90;;;;;;5059868;28;20516;-54
2021/01/01 02:09:24;;;;;;;46.10;25.00;;;1.50;99.90;;;;;;5067617;28;20474;-53
2021/01/01 02:11:51;;;;;;;54.90;26.30;;;1.40;99.90;;;;;;5071128;28;20536;-53
2021/01/01 02:14:18;;;;;;;49.60;24.87;;;1.60;99.90;;;;;;5070775;28;20530;-53
2021/01/01 02:16:45;;;;;;;53.23;24.60;;;1.60;99.90;;;;;;5071634;28;20454;-54
2021/01/01 02:19:13;;;;;;;57.10;26.30;;;1.50;99.90;;;;;;5070155;28;20450;-54
2021/01/01 02:21:41;;;;;;;59.93;28.50;;;1.50;99.90;;;;;;5061836;28;20466;-54
2021/01/01 02:24:11;;;;;;;53.43;27.10;;;1.50;99.90;;;;;;5065117;28;20653;-54
2021/01/01 02:26:38;;;;;;;56.23;27.50;;;1.50;99.90;;;;;;5064821;28;20475;-53
2021/01/01 02:29:04;;;;;;;57.33;27.67;;;1.60;99.90;;;;;;5063446;28;20473;-54
2021/01/01 02:31:31;;;;;;;58.97;28.20;;;1.60;99.90;;;;;;5059007;28;20467;-54
2021/01/01 02:33:57;;;;;;;60.97;29.30;;;1.50;99.90;;;;;;5059453;28;20490;-53
2021/01/01 02:36:24;;;;;;;57.70;26.20;;;1.50;99.90;;;;;;5063017;28;20497;-54
2021/01/01 02:38:51;;;;;;;58.57;28.93;;;1.40;99.90;;;;;;5070796;28;20454;-54
2021/01/01 02:41:18;;;;;;;59.20;27.33;;;1.30;99.90;;;;;;5069422;28;20465;-54
2021/01/01 02:43:44;;;;;;;61.07;27.87;;;1.50;99.90;;;;;;5069824;28;20536;-54
2021/01/01 02:46:11;;;;;;;62.13;27.77;;;1.40;99.90;;;;;;5070155;28;20473;-53
2021/01/01 02:48:37;;;;;;;60.10;29.73;;;1.20;99.90;;;;;;5070350;28;20522;-53
2021/01/01 02:51:04;;;;;;;61.17;29.83;;;1.40;99.90;;;;;;5070054;28;20474;-53
2021/01/01 02:53:31;;;;;;;63.50;28.53;;;1.40;99.90;;;;;;5069622;28;20485;-53
2021/01/01 02:55:57;;;;;;;58.47;25.90;;;1.20;99.90;;;;;;5067466;28;20499;-53
2021/01/01 02:58:24;;;;;;;44.80;21.67;;;1.40;99.90;;;;;;5063584;28;20520;-54
2021/01/01 03:00:51;;;;;;;45.13;22.30;;;1.30;99.90;;;;;;5069863;28;20453;-54
2021/01/01 03:03:18;;;;;;;47.77;22.47;;;1.20;99.90;;;;;;5050901;28;21043;-53
2021/01/01 03:05:45;;;;;;;40.87;20.37;;;1.20;99.90;;;;;;5065834;28;21112;-54
2021/01/01 03:08:11;;;;;;;39.80;19.03;;;1.20;99.90;;;;;;5068105;28;20883;-54
2021/01/01 03:10:38;;;;;;;41.53;18.27;;;1.30;99.90;;;;;;5064487;28;20470;-54
2021/01/01 03:13:04;;;;;;;42.30;17.70;;;1.30;99.90;;;;;;5067430;28;20879;-53
2021/01/01 03:15:32;;;;;;;34.67;17.90;;;1.30;99.90;;;;;;5069835;28;20485;-54
2021/01/01 03:17:59;;;;;;;41.17;18.67;;;1.30;99.90;;;;;;5070614;28;20446;-54
2021/01/01 03:20:25;;;;;;;37.13;17.30;;;1.20;99.90;;;;;;5068366;28;20447;-54
2021/01/01 03:22:52;;;;;;;32.80;15.70;;;1.20;99.90;;;;;;5063964;28;20978;-53
2021/01/01 03:25:18;;;;;;;25.00;13.20;;;1.00;99.90;;;;;;5069122;28;20477;-53
2021/01/01 03:27:45;;;;;;;26.27;11.53;;;1.10;99.90;;;;;;5058283;28;20462;-53
2021/01/01 03:30:12;;;;;;;27.47;13.07;;;1.10;99.90;;;;;;5061559;28;20465;-54
2021/01/01 03:32:40;;;;;;;31.57;14.37;;;1.00;99.90;;;;;;5062028;28;20485;-54
2021/01/01 03:35:08;;;;;;;35.20;16.40;;;1.10;99.90;;;;;;5070212;28;20473;-53
2021/01/01 03:37:35;;;;;;;29.43;15.83;;;1.20;99.90;;;;;;5067305;28;20469;-54
2021/01/01 03:40:03;;;;;;;34.67;15.63;;;1.20;99.90;;;;;;5069437;28;20462;-54
2021/01/01 03:42:29;;;;;;;28.60;14.40;;;1.00;99.90;;;;;;5065719;28;20464;-54
2021/01/01 03:44:56;;;;;;;29.13;15.37;;;1.00;99.90;;;;;;5066654;28;20485;-54
2021/01/01 03:47:22;;;;;;;31.57;15.07;;;1.00;99.90;;;;;;5070329;28;20476;-53
2021/01/01 03:49:49;;;;;;;30.57;16.00;;;1.10;99.90;;;;;;5061193;28;21019;-54
2021/01/01 03:52:16;;;;;;;32.10;17.07;;;1.00;99.90;;;;;;5068552;28;20482;-54
2021/01/01 03:54:42;;;;;;;29.53;16.60;;;1.10;99.90;;;;;;5067810;28;20512;-54
2021/01/01 03:57:09;;;;;;;38.47;17.67;;;1.30;99.90;;;;;;5063696;28;20527;-54
2021/01/01 03:59:35;;;;;;;34.73;17.97;;;1.20;99.90;;;;;;5061971;28;20805;-54
2021/01/01 04:02:02;;;;;;;40.43;18.70;;;1.30;99.90;;;;;;5069650;28;20827;-54
2021/01/01 04:04:28;;;;;;;36.40;17.17;;;1.20;99.90;;;;;;5065111;28;20486;-54
2021/01/01 04:06:56;;;;;;;32.50;16.87;;;1.10;99.90;;;;;;5068856;28;20959;-53
2021/01/01 04:09:22;;;;;;;34.43;16.87;;;1.20;99.90;;;;;;5068615;28;20458;-53
2021/01/01 04:11:48;;;;;;;34.23;17.77;;;1.20;99.90;;;;;;5060009;28;20464;-54
2021/01/01 04:14:15;;;;;;;37.43;17.50;;;1.30;99.90;;;;;;5052932;28;20483;-53
2021/01/01 04:16:45;;;;;;;36.90;16.77;;;1.30;99.90;;;;;;5065759;28;20469;-54
2021/01/01 04:19:12;;;;;;;36.27;17.80;;;1.30;99.90;;;;;;5069413;28;20496;-54
2021/01/01 04:21:44;;;;;;;37.40;17.40;;;1.40;99.90;;;;;;5062008;28;20470;-54
2021/01/01 04:24:12;;;;;;;36.30;17.67;;;1.40;99.90;;;;;;5067606;28;20587;-54
2021/01/01 04:26:39;;;;;;;37.50;18.40;;;1.30;99.90;;;;;;5067986;28;20929;-53
2021/01/01 04:29:06;;;;;;;33.93;17.70;;;1.20;99.90;;;;;;5065591;28;20473;-54
2021/01/01 04:31:34;;;;;;;36.47;17.60;;;1.30;99.90;;;;;;5068608;28;20471;-54
2021/01/01 04:34:04;;;;;;;34.23;18.20;;;1.20;99.90;;;;;;5069489;28;20492;-54
2021/01/01 04:36:31;;;;;;;39.13;18.70;;;1.20;99.90;;;;;;5068020;28;20508;-54
2021/01/01 04:38:58;;;;;;;44.50;19.43;;;1.20;99.90;;;;;;5066287;28;20458;-54
2021/01/01 04:41:27;;;;;;;39.60;20.10;;;1.20;99.90;;;;;;5054970;28;20492;-54
2021/01/01 04:43:53;;;;;;;45.13;21.07;;;1.40;99.90;;;;;;5058983;28;20481;-53
2021/01/01 04:46:20;;;;;;;37.57;18.70;;;1.10;99.90;;;;;;5062370;28;20466;-53
2021/01/01 04:48:47;;;;;;;42.47;20.53;;;1.00;99.90;;;;;;5059859;28;20473;-54
2021/01/01 04:51:14;;;;;;;42.30;20.13;;;0.90;99.90;;;;;;5059757;28;20462;-53
2021/01/01 04:53:41;;;;;;;32.40;17.07;;;1.00;99.90;;;;;;5063669;28;20487;-53
2021/01/01 04:56:09;;;;;;;34.33;16.13;;;0.90;99.90;;;;;;5059355;28;20968;-54
2021/01/01 04:58:37;;;;;;;27.67;14.10;;;0.80;99.90;;;;;;5059000;28;20535;-53
2021/01/01 05:01:04;;;;;;;33.70;15.57;;;0.90;99.90;;;;;;5058650;28;20979;-54
2021/01/01 05:03:32;;;;;;;33.03;15.10;;;1.00;99.90;;;;;;5066444;28;20477;-53
2021/01/01 05:05:59;;;;;;;28.27;14.03;;;0.70;99.90;;;;;;5063790;28;20466;-53
2021/01/01 05:08:25;;;;;;;27.40;13.10;;;0.70;99.90;;;;;;5064992;28;20462;-53
2021/01/01 05:10:51;;;;;;;24.70;13.50;;;0.80;99.90;;;;;;5062955;28;20461;-54
2021/01/01 05:13:19;;;;;;;20.67;11.80;;;0.90;99.90;;;;;;5064861;28;20488;-53
2021/01/01 05:15:48;;;;;;;20.57;10.93;;;1.00;99.90;;;;;;5063430;28;20527;-54
2021/01/01 05:18:20;;;;;;;23.93;12.40;;;1.00;99.90;;;;;;5061674;28;20834;-54
2021/01/01 05:20:47;;;;;;;21.40;11.43;;;0.90;99.90;;;;;;5063117;28;20462;-53
2021/01/01 05:23:22;;;;;;;23.00;11.13;;;1.00;99.90;;;;;;5064307;28;20574;-53
2021/01/01 05:26:07;;;;;;;20.37;10.73;;;1.00;99.90;;;;;;5061937;28;20871;-53
2021/01/01 05:28:51;;;;;;;17.80;10.20;;;1.00;99.90;;;;;;5068249;28;20557;-54
2021/01/01 05:31:19;;;;;;;16.40;9.37;;;1.10;99.90;;;;;;5067100;28;20845;-53
2021/01/01 05:33:52;;;;;;;18.90;9.93;;;1.20;99.90;;;;;;5064415;28;20495;-54
2021/01/01 05:36:29;;;;;;;13.70;8.50;;;1.10;99.90;;;;;;5064890;28;20500;-54
2021/01/01 05:38:55;;;;;;;17.60;8.77;;;1.00;99.90;;;;;;5071738;28;20462;-54
2021/01/01 05:41:30;;;;;;;18.90;9.73;;;1.00;99.90;;;;;;5071960;28;20847;-54
2021/01/01 05:44:15;;;;;;;14.70;7.93;;;1.00;99.90;;;;;;5067488;28;20534;-54
2021/01/01 05:47:05;;;;;;;17.57;8.53;;;1.00;99.90;;;;;;5071090;28;20514;-54
2021/01/01 05:49:34;;;;;;;18.70;9.80;;;0.90;99.90;;;;;;5071850;28;20460;-54
2021/01/01 05:52:15;;;;;;;20.07;9.93;;;0.90;99.90;;;;;;5070585;28;20516;-54
2021/01/01 05:54:43;;;;;;;21.50;10.87;;;0.80;99.90;;;;;;5067853;28;20509;-54
2021/01/01 05:57:11;;;;;;;17.80;9.30;;;0.70;99.90;;;;;;5071934;28;20497;-54
2021/01/01 05:59:40;;;;;;;18.80;9.60;;;0.70;99.90;;;;;;5070081;28;20465;-54
2021/01/01 06:02:09;;;;;;;19.90;9.80;;;0.80;99.90;;;;;;5071638;28;20465;-53
2021/01/01 06:04:35;;;;;;;16.57;9.83;;;0.90;99.90;;;;;;5066637;28;20482;-53
2021/01/01 06:07:04;;;;;;;22.93;10.60;;;0.90;99.90;;;;;;5060973;28;21499;-54
2021/01/01 06:09:32;;;;;;;16.70;9.17;;;0.80;99.90;;;;;;5060227;28;20464;-53
2021/01/01 06:12:01;;;;;;;21.73;10.80;;;0.90;99.90;;;;;;5061218;28;20508;-54
2021/01/01 06:14:32;;;;;;;17.13;9.03;;;0.70;99.90;;;;;;5061412;28;20484;-53
2021/01/01 06:17:18;;;;;;;20.83;10.80;;;0.70;99.90;;;;;;5063162;28;20519;-53
2021/01/01 06:19:46;;;;;;;27.53;11.47;;;0.70;99.90;;;;;;5063180;28;20469;-53
2021/01/01 06:22:14;;;;;;;20.30;10.07;;;0.40;99.90;;;;;;5063449;28;20522;-53
2021/01/01 06:24:49;;;;;;;20.77;9.77;;;0.30;99.90;;;;;;5062244;28;20565;-54
2021/01/01 06:27:17;;;;;;;20.30;10.10;;;0.20;99.90;;;;;;5064476;28;21124;-54
2021/01/01 06:29:46;;;;;;;17.80;9.17;;;0.30;99.90;;;;;;5062514;28;20475;-53
2021/01/01 06:32:13;;;;;;;20.43;9.30;;;0.10;99.90;;;;;;5063263;28;21060;-53
2021/01/01 06:34:40;;;;;;;20.20;9.67;;;0.00;99.90;;;;;;5071320;28;20496;-53
2021/01/01 06:37:07;;;;;;;14.97;8.63;;;0.00;99.90;;;;;;5060810;28;20967;-53
2021/01/01 06:39:52;;;;;;;16.27;9.10;;;0.00;99.90;;;;;;5058564;28;20465;-53
2021/01/01 06:42:39;;;;;;;16.00;8.60;;;0.00;99.90;;;;;;5060196;28;20449;-53
2021/01/01 06:45:36;;;;;;;16.53;9.20;;;0.10;99.90;;;;;;5059711;28;20490;-53
2021/01/01 06:48:03;;;;;;;18.40;9.03;;;0.20;99.90;;;;;;5060254;28;20497;-53
2021/01/01 06:50:32;;;;;;;20.20;8.90;;;0.00;99.90;;;;;;5060395;28;20514;-53
2021/01/01 06:53:06;;;;;;;18.63;9.00;;;0.00;99.90;;;;;;5061209;28;21060;-53
2021/01/01 06:55:34;;;;;;;15.10;8.60;;;0.20;99.90;;;;;;5060083;28;20492;-54
2021/01/01 06:58:01;;;;;;;21.00;9.57;;;0.30;99.90;;;;;;5061964;28;20842;-53
2021/01/01 07:00:55;;;;;;;20.60;10.00;;;0.40;99.90;;;;;;5059134;28;20489;-53
2021/01/01 07:03:39;;;;;;;18.47;9.97;;;0.40;99.90;;;;;;5061047;28;20463;-53
2021/01/01 07:06:49;;;;;;;19.30;10.17;;;0.30;99.90;;;;;;5056260;28;20480;-53
2021/01/01 07:09:36;;;;;;;22.93;10.17;;;0.10;99.90;;;;;;5061571;28;21663;-54
2021/01/01 07:12:14;;;;;;;19.53;10.00;;;0.10;99.90;;;;;;5059342;28;20551;-53
2021/01/01 07:14:40;;;;;;;21.40;11.43;;;0.20;99.90;;;;;;5061296;28;21026;-53
2021/01/01 07:17:08;;;;;;;19.87;9.67;;;0.00;99.90;;;;;;5061630;28;20465;-53
2021/01/01 07:19:35;;;;;;;23.60;9.83;;;0.10;99.90;;;;;;5061982;28;20459;-53
2021/01/01 07:22:01;;;;;;;16.90;9.00;;;0.30;99.90;;;;;;5064485;28;20461;-53
2021/01/01 07:24:28;;;;;;;22.63;10.57;;;0.50;99.90;;;;;;5060996;28;20489;-53
2021/01/01 07:26:56;;;;;;;21.10;9.83;;;0.60;99.90;;;;;;5058740;28;20505;-53
2021/01/01 07:29:25;;;;;;;18.50;9.57;;;0.70;99.90;;;;;;5060080;28;20468;-53
2021/01/01 07:31:53;;;;;;;20.20;10.47;;;0.80;99.90;;;;;;5067905;28;20454;-53
2021/01/01 07:34:19;;;;;;;23.63;11.57;;;0.90;99.90;;;;;;5063818;28;20501;-53
2021/01/01 07:36:46;;;;;;;22.40;10.70;;;0.80;99.90;;;;;;5059456;28;20831;-53
2021/01/01 07:39:13;;;;;;;20.17;11.20;;;0.80;99.90;;;;;;5065248;28;20484;-53
2021/01/01 07:41:40;;;;;;;20.00;10.67;;;1.00;99.90;;;;;;5061025;28;20836;-54
2021/01/01 07:44:07;;;;;;;17.37;9.77;;;1.10;99.90;;;;;;5061133;28;20527;-53
2021/01/01 07:46:34;;;;;;;24.67;11.50;;;1.20;99.90;;;;;;5067472;28;20461;-53
2021/01/01 07:49:01;;;;;;;22.77;11.70;;;1.30;99.90;;;;;;5058764;28;20439;-53
2021/01/01 07:51:27;;;;;;;19.00;10.77;;;1.20;99.90;;;;;;5055423;28;20449;-53
2021/01/01 07:53:59;;;;;;;16.50;9.70;;;1.30;99.90;;;;;;5063491;28;20489;-53
2021/01/01 07:56:26;;;;;;;16.30;9.77;;;1.50;99.90;;;;;;5059615;28;20552;-53
2021/01/01 07:58:54;;;;;;;14.00;7.87;;;1.50;99.90;;;;;;5057434;28;20455;-54
2021/01/01 08:01:22;;;;;;;11.63;6.90;;;1.60;99.90;;;;;;5062505;28;20460;-53
2021/01/01 08:03:50;;;;;;;9.30;6.37;;;1.70;99.90;;;;;;5060593;28;20471;-53
2021/01/01 08:06:18;;;;;;;14.30;8.00;;;1.80;99.90;;;;;;5057572;28;20537;-53
2021/01/01 08:08:45;;;;;;;18.77;8.93;;;1.80;99.90;;;;;;5058125;28;20323;-54
2021/01/01 08:11:12;;;;;;;15.90;8.50;;;1.70;99.90;;;;;;5059512;28;20465;-53
2021/01/01 08:13:38;;;;;;;14.63;7.37;;;1.60;99.90;;;;;;5060243;28;20544;-54
2021/01/01 08:16:14;;;;;;;15.67;8.80;;;1.60;99.90;;;;;;5057861;28;20467;-53
2021/01/01 08:18:41;;;;;;;16.70;8.73;;;1.90;99.90;;;;;;5063389;28;20474;-53
2021/01/01 08:21:08;;;;;;;20.57;10.63;;;2.00;99.90;;;;;;5057710;28;20479;-54
2021/01/01 08:23:46;;;;;;;23.47;10.67;;;1.80;99.90;;;;;;5060396;28;20483;-53
2021/01/01 08:26:13;;;;;;;23.40;10.90;;;1.80;99.90;;;;;;5059381;28;20892;-53
2021/01/01 08:28:42;;;;;;;21.43;11.43;;;2.00;99.90;;;;;;5058370;28;20469;-53
2021/01/01 08:31:10;;;;;;;25.20;10.83;;;2.10;99.90;;;;;;5060040;28;20913;-54
2021/01/01 08:33:39;;;;;;;17.50;9.77;;;2.00;99.90;;;;;;5059940;28;20532;-53
2021/01/01 08:36:07;;;;;;;18.00;9.50;;;2.10;99.90;;;;;;5060175;28;20470;-54
2021/01/01 08:38:34;;;;;;;16.47;9.17;;;2.20;99.90;;;;;;5060069;28;20468;-54
2021/01/01 08:41:01;;;;;;;17.67;10.53;;;2.30;99.90;;;;;;5061128;28;21495;-53
2021/01/01 08:43:29;;;;;;;17.30;10.27;;;2.30;99.90;;;;;;5062415;28;20457;-52
2021/01/01 08:45:55;;;;;;;17.43;10.13;;;2.40;99.90;;;;;;5066960;28;20516;-53
2021/01/01 08:48:27;;;;;;;17.87;9.93;;;2.40;99.90;;;;;;5063000;28;20461;-54
2021/01/01 08:50:56;;;;;;;16.17;8.93;;;2.30;99.90;;;;;;5062823;28;20455;-54
2021/01/01 08:53:22;;;;;;;16.90;9.23;;;2.40;99.90;;;;;;5060778;28;20491;-54
2021/01/01 08:55:57;;;;;;;18.70;9.93;;;2.40;99.90;;;;;;5057278;28;20462;-53
2021/01/01 08:58:24;;;;;;;17.33;9.37;;;2.40;99.90;;;;;;5062179;28;20474;-53
2021/01/01 09:00:50;;;;;;;17.10;8.63;;;2.40;99.90;;;;;;5059764;28;20459;-54
2021/01/01 09:03:18;;;;;;;19.67;9.97;;;2.50;99.90;;;;;;5062358;28;20503;-53
2021/01/01 09:05:45;;;;;;;16.10;8.90;;;2.60;99.90;;;;;;5062522;28;20461;-53
2021/01/01 09:08:13;;;;;;;19.30;9.87;;;2.70;99.90;;;;;;5066727;28;20459;-54
2021/01/01 09:10:41;;;;;;;16.10;8.43;;;2.70;99.90;;;;;;5060542;28;20463;-54
2021/01/01 09:13:16;;;;;;;14.77;8.50;;;2.80;99.90;;;;;;5060518;28;20528;-54
2021/01/01 09:15:44;;;;;;;17.43;8.43;;;2.60;99.90;;;;;;5058549;28;20831;-54
2021/01/01 09:18:11;;;;;;;14.67;7.90;;;2.80;99.90;;;;;;5062571;28;20463;-53
2021/01/01 09:20:40;;;;;;;12.37;8.07;;;2.80;99.90;;;;;;5069397;28;20463;-53
2021/01/01 09:23:08;;;;;;;15.80;8.30;;;3.00;99.90;;;;;;5061722;28;20454;-53
2021/01/01 09:25:36;;;;;;;13.87;7.47;;;3.30;99.90;;;;;;5059680;28;20590;-54
2021/01/01 09:28:04;;;;;;;13.10;7.70;;;3.60;99.90;;;;;;5062139;28;20463;-53
2021/01/01 09:30:31;;;;;;;14.33;8.10;;;4.10;99.90;;;;;;5061785;28;21882;-54
2021/01/01 09:32:59;;;;;;;14.37;8.00;;;4.50;99.90;;;;;;5066183;28;20487;-53
2021/01/01 09:35:28;;;;;;;18.67;10.50;;;4.80;99.90;;;;;;5061616;28;20479;-53
2021/01/01 09:37:56;;;;;;;23.40;12.70;;;4.80;99.90;;;;;;5065017;28;20465;-54
2021/01/01 09:40:24;;;;;;;23.97;12.87;;;4.80;99.90;;;;;;5062078;28;21033;-53
2021/01/01 09:42:51;;;;;;;23.30;12.40;;;4.80;99.90;;;;;;5063868;28;20987;-53
2021/01/01 09:45:19;;;;;;;29.17;15.57;;;4.80;99.90;;;;;;5062571;28;20474;-53
2021/01/01 09:47:45;;;;;;;28.77;15.13;;;4.70;99.90;;;;;;5060911;28;20458;-54
2021/01/01 09:50:13;;;;;;;28.50;15.87;;;4.60;99.90;;;;;;5061847;28;20462;-54
2021/01/01 09:52:41;;;;;;;31.00;16.97;;;4.50;99.90;;;;;;5058946;28;20495;-54
2021/01/01 09:55:09;;;;;;;31.50;16.97;;;4.50;99.90;;;;;;5061140;28;20486;-53
2021/01/01 09:57:37;;;;;;;37.10;18.50;;;4.50;99.90;;;;;;5061021;28;20463;-53
2021/01/01 10:00:09;;;;;;;35.83;18.17;;;4.50;99.90;;;;;;5059724;28;20474;-53
2021/01/01 10:02:36;;;;;;;40.40;18.40;;;4.20;99.90;;;;;;5062022;28;20530;-54
2021/01/01 10:05:03;;;;;;;36.50;19.00;;;4.20;99.90;;;;;;5060725;28;20490;-53
2021/01/01 10:07:30;;;;;;;37.57;20.10;;;4.20;99.90;;;;;;5062123;28;20463;-54
2021/01/01 10:09:57;;;;;;;41.80;20.83;;;4.30;99.90;;;;;;5061169;28;20463;-54
2021/01/01 10:12:24;;;;;;;35.50;19.13;;;4.20;99.90;;;;;;5062178;28;20509;-53
2021/01/01 10:14:54;;;;;;;39.50;20.37;;;3.90;99.90;;;;;;5062061;28;20486;-53
2021/01/01 10:17:22;;;;;;;43.67;20.70;;;3.90;99.90;;;;;;5062947;28;20463;-53
2021/01/01 10:19:48;;;;;;;36.13;19.77;;;4.00;99.90;;;;;;5062117;28;20468;-53
2021/01/01 10:22:15;;;;;;;41.40;20.03;;;4.00;99.90;;;;;;5060448;28;20478;-53
2021/01/01 10:24:43;;;;;;;35.67;20.00;;;4.00;99.90;;;;;;5060848;28;20502;-53
2021/01/01 10:27:09;;;;;;;42.33;21.10;;;4.10;99.90;;;;;;5061745;28;20463;-54
2021/01/01 10:29:36;;;;;;;49.27;23.90;;;3.90;99.90;;;;;;5063495;28;20884;-54
2021/01/01 10:32:03;;;;;;;44.67;21.47;;;4.20;99.90;;;;;;5061025;28;20463;-53
2021/01/01 10:34:30;;;;;;;43.63;19.63;;;4.10;99.90;;;;;;5060484;28;20532;-53
2021/01/01 10:36:56;;;;;;;39.83;21.80;;;4.20;99.90;;;;;;5060059;28;20463;-53
2021/01/01 10:39:23;;;;;;;43.67;21.87;;;4.30;99.90;;;;;;5067335;28;20464;-53
2021/01/01 10:41:49;;;;;;;40.27;20.67;;;4.50;99.90;;;;;;5062373;28;20462;-53
2021/01/01 10:44:17;;;;;;;36.10;20.07;;;4.60;99.90;;;;;;5061094;28;21006;-54
2021/01/01 10:46:47;;;;;;;39.40;20.20;;;4.60;99.90;;;;;;5059771;28;20482;-53
2021/01/01 10:49:16;;;;;;;36.67;20.70;;;4.70;99.90;;;;;;5059715;28;20825;-52
2021/01/01 10:51:44;;;;;;;39.73;19.97;;;4.90;99.90;;;;;;5059050;28;20467;-53
2021/01/01 10:54:10;;;;;;;36.70;20.63;;;4.80;99.90;;;;;;5061130;28;20487;-53
2021/01/01 10:56:37;;;;;;;35.43;18.90;;;4.90;99.90;;;;;;5060956;28;20480;-53
2021/01/01 10:59:03;;;;;;;33.57;18.20;;;5.00;99.90;;;;;;5058840;28;20516;-53
2021/01/01 11:01:29;;;;;;;37.00;18.60;;;5.10;99.90;;;;;;5061447;28;20464;-53
2021/01/01 11:03:56;;;;;;;38.80;19.40;;;5.00;99.90;;;;;;5061387;28;20482;-53
2021/01/01 11:06:22;;;;;;;36.03;19.97;;;4.80;99.90;;;;;;5065447;28;20448;-54
2021/01/01 11:08:50;;;;;;;35.87;19.07;;;4.70;99.90;;;;;;5052862;28;20467;-54
2021/01/01 11:11:21;;;;;;;35.57;18.10;;;4.60;99.90;;;;;;5056703;28;20463;-53
2021/01/01 11:13:51;;;;;;;39.20;19.60;;;4.60;99.90;;;;;;5051483;28;20492;-53
2021/01/01 12:20:08;;;;;;;30.80;15.17;;;4.70;99.90;;;;;;5062937;28;20452;-54
2021/01/01 12:22:41;;;;;;;29.57;15.30;;;4.60;99.90;;;;;;5057547;28;20979;-54
2021/01/01 12:25:10;;;;;;;29.00;16.57;;;4.70;99.90;;;;;;5063416;28;20505;-54
2021/01/01 12:27:37;;;;;;;37.60;20.40;;;4.80;99.90;;;;;;5060977;28;20471;-52
2021/01/01 12:30:06;;;;;;;26.43;14.80;;;4.90;99.90;;;;;;5073139;28;21006;-53
2021/01/01 12:32:32;;;;;;;33.30;19.40;;;4.70;99.90;;;;;;5069299;28;21059;-53
2021/01/01 12:34:59;;;;;;;34.63;18.47;;;4.60;99.90;;;;;;5073166;28;20496;-53
2021/01/01 12:37:26;;;;;;;44.33;23.03;;;4.80;99.90;;;;;;5070754;28;20457;-54
2021/01/01 12:39:52;;;;;;;30.40;17.27;;;4.80;99.90;;;;;;5062498;28;20464;-53
2021/01/01 12:42:19;;;;;;;24.20;13.27;;;4.80;99.90;;;;;;5064986;28;21029;-53
2021/01/01 12:44:46;;;;;;;42.97;25.60;;;4.70;99.90;;;;;;5071868;28;21159;-53
2021/01/01 12:47:14;;;;;;;27.80;15.47;;;4.80;99.90;;;;;;5067983;28;20232;-53
2021/01/01 12:49:42;;;;;;;20.00;11.60;;;4.60;99.90;;;;;;5063715;28;20451;-53
2021/01/01 12:52:09;;;;;;;27.13;13.87;;;4.30;99.90;;;;;;5071554;28;20497;-53
2021/01/01 12:54:35;;;;;;;25.53;11.50;;;4.10;99.90;;;;;;5062993;28;20494;-53
2021/01/01 12:57:02;;;;;;;21.50;10.67;;;4.20;99.90;;;;;;5070040;28;20456;-53
2021/01/01 12:59:28;;;;;;;16.50;9.07;;;4.10;99.90;;;;;;5069939;28;20469;-53
2021/01/01 13:01:55;;;;;;;17.03;8.60;;;4.10;99.90;;;;;;5071539;28;20442;-53
2021/01/01 13:04:22;;;;;;;22.13;11.37;;;4.30;99.90;;;;;;5069133;28;20837;-53
2021/01/01 13:06:49;;;;;;;27.57;14.10;;;4.30;99.90;;;;;;5072972;28;20815;-53
2021/01/01 13:09:16;;;;;;;28.80;15.70;;;4.30;99.90;;;;;;5072678;28;20454;-53
2021/01/01 13:11:43;;;;;;;35.33;18.90;;;4.30;99.90;;;;;;5076115;28;20511;-53
2021/01/01 13:14:11;;;;;;;35.00;17.90;;;4.20;99.90;;;;;;5070884;28;20611;-53
2021/01/01 13:16:37;;;;;;;31.80;17.30;;;4.50;99.90;;;;;;5072651;28;20968;-53
2021/01/01 13:19:08;;;;;;;36.63;19.23;;;4.60;99.90;;;;;;5072546;28;20455;-53
2021/01/01 13:21:36;;;;;;;34.87;19.87;;;4.50;99.90;;;;;;5072835;28;20442;-54
2021/01/01 13:24:06;;;;;;;40.03;20.20;;;4.50;99.90;;;;;;5072198;28;20503;-53
2021/01/01 13:26:34;;;;;;;38.73;19.77;;;4.50;99.90;;;;;;5072821;28;20443;-53
2021/01/01 13:29:04;;;;;;;34.77;19.17;;;4.30;99.90;;;;;;5071623;28;20447;-54
2021/01/01 13:31:38;;;;;;;43.63;23.37;;;4.10;99.90;;;;;;5072755;28;20474;-53
2021/01/01 13:34:09;;;;;;;34.33;19.00;;;4.00;99.90;;;;;;5072066;28;20862;-54
2021/01/01 13:36:38;;;;;;;32.80;17.90;;;4.00;99.90;;;;;;5072406;28;20447;-54
2021/01/01 13:39:08;;;;;;;32.10;16.80;;;4.10;99.90;;;;;;5071849;28;20459;-54
2021/01/01 13:41:38;;;;;;;49.00;21.10;;;4.00;99.90;;;;;;5072151;28;20948;-54
2021/01/01 13:44:08;;;;;;;44.23;23.13;;;4.00;99.90;;;;;;5071356;28;20470;-54
2021/01/01 13:46:35;;;;;;;35.47;18.50;;;4.00;99.90;;;;;;5072803;28;20438;-54
2021/01/01 13:49:02;;;;;;;34.17;17.67;;;3.90;99.90;;;;;;5071839;28;20450;-54